createdAt,value
2024-02-04T00:00:31.064Z,1001.30
2024-02-04T00:01:31.081Z,1001.41
2024-02-04T00:02:30.972Z,1001.37
2024-02-04T00:03:31.169Z,1001.36
2024-02-04T00:04:31.077Z,1001.40
2024-02-04T00:05:30.971Z,1001.42
2024-02-04T00:06:31.065Z,1001.41
2024-02-04T00:07:31.061Z,1001.37
2024-02-04T00:08:31.042Z,1001.35
2024-02-04T00:09:32.134Z,1001.38
2024-02-04T00:10:31.013Z,1001.39
2024-02-04T00:11:30.954Z,1001.34
2024-02-04T00:12:31.001Z,1001.34
2024-02-04T00:13:31.009Z,1001.36
2024-02-04T00:14:30.993Z,1001.27
2024-02-04T00:15:30.999Z,1001.30
2024-02-04T00:16:31.001Z,1001.27
2024-02-04T00:17:31.089Z,1001.33
2024-02-04T00:18:31.088Z,1001.36
2024-02-04T00:19:31.062Z,1001.31
2024-02-04T00:20:30.991Z,1001.25
2024-02-04T00:21:31.060Z,1001.31
2024-02-04T00:22:31.009Z,1001.23
2024-02-04T00:23:31.000Z,1001.27
2024-02-04T00:24:31.069Z,1001.23
2024-02-04T00:25:31.005Z,1001.26
2024-02-04T00:26:31.024Z,1001.17
2024-02-04T00:27:31.233Z,1001.12
2024-02-04T00:28:31.028Z,1001.05
2024-02-04T00:29:31.005Z,1001.10
2024-02-04T00:30:31.030Z,1001.09
2024-02-04T00:31:30.993Z,1001.07
2024-02-04T00:32:31.018Z,1001.04
2024-02-04T00:33:31.118Z,1001.08
2024-02-04T00:34:31.165Z,1001.00
2024-02-04T00:35:30.994Z,1001.11
2024-02-04T00:36:31.019Z,1001.11
2024-02-04T00:37:30.990Z,1000.93
2024-02-04T00:38:31.034Z,1000.93
2024-02-04T00:39:31.033Z,1000.97
2024-02-04T00:40:31.010Z,1000.91
2024-02-04T00:41:31.059Z,1000.93
2024-02-04T00:42:31.036Z,1000.96
2024-02-04T00:43:31.062Z,1001.00
2024-02-04T00:44:31.007Z,1000.99
2024-02-04T00:45:31.048Z,1001.15
2024-02-04T00:46:31.033Z,1001.08
2024-02-04T00:47:31.021Z,1001.03
2024-02-04T00:48:31.225Z,1001.05
2024-02-04T00:49:31.139Z,1001.06
2024-02-04T00:50:31.012Z,1001.12
2024-02-04T00:51:31.037Z,1001.20
2024-02-04T00:52:31.023Z,1001.13
2024-02-04T00:53:31.007Z,1001.11
2024-02-04T00:54:31.120Z,1001.07
2024-02-04T00:55:31.011Z,1001.18
2024-02-04T00:56:31.042Z,1001.16
2024-02-04T00:57:31.122Z,1001.15
2024-02-04T00:58:31.062Z,1001.05
2024-02-04T00:59:31.138Z,1001.10
2024-02-04T01:00:31.149Z,1001.01
2024-02-04T01:01:31.187Z,1001.04
2024-02-04T01:02:31.155Z,1001.10
2024-02-04T01:03:31.196Z,1001.02
2024-02-04T01:04:31.218Z,1001.05
2024-02-04T01:05:31.243Z,1000.99
2024-02-04T01:06:34.992Z,1000.99
2024-02-04T01:07:31.226Z,1001.09
2024-02-04T01:08:31.166Z,1001.10
2024-02-04T01:09:31.254Z,1001.13
2024-02-04T01:10:31.201Z,1001.11
2024-02-04T01:11:31.306Z,1001.06
2024-02-04T01:12:31.175Z,1001.09
2024-02-04T01:13:31.146Z,1001.12
2024-02-04T01:14:31.188Z,1001.05
2024-02-04T01:15:31.210Z,1001.15
2024-02-04T01:16:31.169Z,1001.21
2024-02-04T01:17:31.214Z,1001.17
2024-02-04T01:18:31.277Z,1001.18
2024-02-04T01:19:31.248Z,1001.21
2024-02-04T01:20:31.251Z,1001.19
2024-02-04T01:21:31.196Z,1001.28
2024-02-04T01:22:31.166Z,1001.19
2024-02-04T01:23:31.195Z,1001.27
2024-02-04T01:24:31.202Z,1001.29
2024-02-04T01:25:31.231Z,1001.30
2024-02-04T01:26:31.170Z,1001.36
2024-02-04T01:27:31.224Z,1001.39
2024-02-04T01:28:31.193Z,1001.31
2024-02-04T01:29:31.182Z,1001.31
2024-02-04T01:30:31.314Z,1001.33
2024-02-04T01:31:31.263Z,1001.33
2024-02-04T01:32:31.275Z,1001.35
2024-02-04T01:33:31.298Z,1001.34
2024-02-04T01:34:31.335Z,1001.33
2024-02-04T01:35:31.165Z,1001.47
2024-02-04T01:36:31.333Z,1001.38
2024-02-04T01:37:31.212Z,1001.35
2024-02-04T01:38:31.205Z,1001.37
2024-02-04T01:39:31.286Z,1001.36
2024-02-04T01:40:31.175Z,1001.37
2024-02-04T01:41:31.289Z,1001.34
2024-02-04T01:42:31.203Z,1001.31
2024-02-04T01:43:31.200Z,1001.26
2024-02-04T01:44:31.255Z,1001.36
2024-02-04T01:45:31.197Z,1001.36
2024-02-04T01:46:31.220Z,1001.31
2024-02-04T01:47:31.255Z,1001.21
2024-02-04T01:48:31.285Z,1001.29
2024-02-04T01:49:31.374Z,1001.24
2024-02-04T01:50:31.214Z,1001.19
2024-02-04T01:51:31.255Z,1001.23
2024-02-04T01:52:31.267Z,1001.16
2024-02-04T01:53:31.228Z,1001.14
2024-02-04T01:54:31.213Z,1001.17
2024-02-04T01:55:31.206Z,1001.20
2024-02-04T01:56:31.201Z,1001.15
2024-02-04T01:57:31.241Z,1001.11
2024-02-04T01:58:31.259Z,1001.14
2024-02-04T01:59:31.208Z,1001.15
2024-02-04T02:00:31.264Z,1001.09
2024-02-04T02:01:31.268Z,1001.01
2024-02-04T02:02:31.183Z,1001.15
2024-02-04T02:03:31.409Z,1001.03
2024-02-04T02:04:31.390Z,1001.05
2024-02-04T02:05:31.203Z,1001.04
2024-02-04T02:06:31.286Z,1001.07
2024-02-04T02:07:31.245Z,1001.06
2024-02-04T02:08:31.271Z,1000.96
2024-02-04T02:09:31.581Z,1001.04
2024-02-04T02:10:31.286Z,1000.97
2024-02-04T02:11:31.222Z,1000.98
2024-02-04T02:12:31.242Z,1001.01
2024-02-04T02:13:31.247Z,1001.05
2024-02-04T02:14:31.238Z,1000.99
2024-02-04T02:15:31.261Z,1001.00
2024-02-04T02:16:31.246Z,1000.96
2024-02-04T02:17:31.320Z,1000.94
2024-02-04T02:18:31.340Z,1000.92
2024-02-04T02:19:31.350Z,1000.95
2024-02-04T02:20:31.237Z,1000.95
2024-02-04T02:21:31.256Z,1000.87
2024-02-04T02:22:31.242Z,1000.92
2024-02-04T02:23:31.260Z,1000.93
2024-02-04T02:24:31.234Z,1000.98
2024-02-04T02:25:31.231Z,1000.88
2024-02-04T02:26:31.235Z,1000.91
2024-02-04T02:27:31.233Z,1000.86
2024-02-04T02:28:31.282Z,1000.83
2024-02-04T02:29:31.291Z,1000.87
2024-02-04T02:30:31.266Z,1000.83
2024-02-04T02:31:39.503Z,1000.86
2024-02-04T02:32:31.331Z,1000.79
2024-02-04T02:33:31.352Z,1000.85
2024-02-04T02:34:38.422Z,1000.81
2024-02-04T02:35:31.337Z,1000.76
2024-02-04T02:36:31.251Z,1000.76
2024-02-04T02:37:31.254Z,1000.72
2024-02-04T02:38:31.257Z,1000.73
2024-02-04T02:39:31.254Z,1000.63
2024-02-04T02:40:31.257Z,1000.71
2024-02-04T02:41:31.245Z,1000.66
2024-02-04T02:42:31.315Z,1000.63
2024-02-04T02:43:31.272Z,1000.64
2024-02-04T02:44:31.473Z,1000.67
2024-02-04T02:45:31.285Z,1000.66
2024-02-04T02:46:31.297Z,1000.69
2024-02-04T02:47:31.323Z,1000.57
2024-02-04T02:48:31.430Z,1000.65
2024-02-04T02:49:31.372Z,1000.61
2024-02-04T02:50:31.301Z,1000.56
2024-02-04T02:51:31.335Z,1000.56
2024-02-04T02:52:31.293Z,1000.51
2024-02-04T02:53:31.295Z,1000.50
2024-02-04T02:54:31.303Z,1000.52
2024-02-04T02:55:31.255Z,1000.54
2024-02-04T02:56:31.238Z,1000.45
2024-02-04T02:57:31.274Z,1000.38
2024-02-04T02:58:31.486Z,1000.42
2024-02-04T02:59:31.301Z,1000.45
2024-02-04T03:00:31.485Z,1000.42
2024-02-04T03:01:31.341Z,1000.40
2024-02-04T03:02:31.276Z,1000.44
2024-02-04T03:03:31.336Z,1000.54
2024-02-04T03:04:31.357Z,1000.46
2024-02-04T03:05:31.304Z,1000.49
2024-02-04T03:06:31.265Z,1000.59
2024-02-04T03:07:31.314Z,1000.51
2024-02-04T03:08:31.263Z,1000.55
2024-02-04T03:09:31.325Z,1000.46
2024-02-04T03:10:31.274Z,1000.48
2024-02-04T03:11:31.290Z,1000.50
2024-02-04T03:12:31.352Z,1000.43
2024-02-04T03:13:31.271Z,1000.40
2024-02-04T03:14:31.337Z,1000.49
2024-02-04T03:15:31.334Z,1000.43
2024-02-04T03:16:31.316Z,1000.33
2024-02-04T03:17:31.328Z,1000.49
2024-02-04T03:18:31.297Z,1000.45
2024-02-04T03:19:31.312Z,1000.48
2024-02-04T03:20:31.288Z,1000.48
2024-02-04T03:21:31.360Z,1000.43
2024-02-04T03:22:31.297Z,1000.45
2024-02-04T03:23:31.286Z,1000.43
2024-02-04T03:24:31.351Z,1000.39
2024-02-04T03:25:31.286Z,1000.49
2024-02-04T03:26:31.300Z,1000.33
2024-02-04T03:27:31.303Z,1000.40
2024-02-04T03:28:31.289Z,1000.35
2024-02-04T03:29:31.372Z,1000.34
2024-02-04T03:30:31.356Z,1000.34
2024-02-04T03:31:31.318Z,1000.40
2024-02-04T03:32:31.319Z,1000.34
2024-02-04T03:33:31.380Z,1000.26
2024-02-04T03:34:31.508Z,1000.29
2024-02-04T03:35:31.318Z,1000.32
2024-02-04T03:36:31.309Z,1000.34
2024-02-04T03:37:31.308Z,1000.40
2024-02-04T03:38:31.306Z,1000.41
2024-02-04T03:39:31.320Z,1000.39
2024-02-04T03:40:31.339Z,1000.41
2024-02-04T03:41:31.371Z,1000.40
2024-02-04T03:42:31.313Z,1000.41
2024-02-04T03:43:31.285Z,1000.43
2024-02-04T03:44:31.333Z,1000.43
2024-02-04T03:45:31.336Z,1000.41
2024-02-04T03:46:31.365Z,1000.48
2024-02-04T03:47:31.384Z,1000.48
2024-02-04T03:48:31.416Z,1000.42
2024-02-04T03:49:31.381Z,1000.41
2024-02-04T03:50:31.309Z,1000.41
2024-02-04T03:51:31.330Z,1000.29
2024-02-04T03:52:31.330Z,1000.34
2024-02-04T03:53:31.358Z,1000.40
2024-02-04T03:54:31.348Z,1000.38
2024-02-04T03:55:31.307Z,1000.38
2024-02-04T03:56:31.332Z,1000.32
2024-02-04T03:57:31.373Z,1000.33
2024-02-04T03:58:31.368Z,1000.40
2024-02-04T03:59:31.337Z,1000.45
2024-02-04T04:00:31.439Z,1000.41
2024-02-04T04:01:31.784Z,1000.38
2024-02-04T04:02:31.332Z,1000.34
2024-02-04T04:03:31.379Z,1000.37
2024-02-04T04:04:31.566Z,1000.27
2024-02-04T04:05:31.413Z,1000.27
2024-02-04T04:06:31.421Z,1000.31
2024-02-04T04:07:31.381Z,1000.35
2024-02-04T04:08:31.316Z,1000.27
2024-02-04T04:09:31.395Z,1000.25
2024-02-04T04:10:31.347Z,1000.34
2024-02-04T04:11:31.343Z,1000.25
2024-02-04T04:12:31.392Z,1000.25
2024-02-04T04:13:31.356Z,1000.29
2024-02-04T04:14:31.371Z,1000.30
2024-02-04T04:15:31.342Z,1000.23
2024-02-04T04:16:31.346Z,1000.30
2024-02-04T04:17:31.347Z,1000.33
2024-02-04T04:18:31.450Z,1000.29
2024-02-04T04:19:31.472Z,1000.25
2024-02-04T04:20:31.381Z,1000.26
2024-02-04T04:21:31.403Z,1000.22
2024-02-04T04:22:31.396Z,1000.32
2024-02-04T04:23:31.380Z,1000.28
2024-02-04T04:24:31.378Z,1000.26
2024-02-04T04:25:31.368Z,1000.34
2024-02-04T04:26:31.383Z,1000.30
2024-02-04T04:27:31.365Z,1000.27
2024-02-04T04:28:31.331Z,1000.23
2024-02-04T04:29:31.350Z,1000.22
2024-02-04T04:30:31.401Z,1000.20
2024-02-04T04:31:31.366Z,1000.23
2024-02-04T04:32:31.475Z,1000.17
2024-02-04T04:33:31.536Z,1000.27
2024-02-04T04:34:31.378Z,1000.18
2024-02-04T04:35:31.381Z,1000.23
2024-02-04T04:36:31.461Z,1000.24
2024-02-04T04:37:31.352Z,1000.29
2024-02-04T04:38:31.391Z,1000.18
2024-02-04T04:39:31.464Z,1000.23
2024-02-04T04:40:31.343Z,1000.15
2024-02-04T04:41:31.378Z,1000.24
2024-02-04T04:42:31.387Z,1000.21
2024-02-04T04:43:31.363Z,1000.21
2024-02-04T04:44:31.367Z,1000.28
2024-02-04T04:45:31.451Z,1000.26
2024-02-04T04:46:31.617Z,1000.32
2024-02-04T04:47:31.442Z,1000.27
2024-02-04T04:48:31.475Z,1000.24
2024-02-04T04:49:31.555Z,1000.22
2024-02-04T04:50:31.353Z,1000.25
2024-02-04T04:51:31.550Z,1000.26
2024-02-04T04:52:31.461Z,1000.20
2024-02-04T04:53:31.379Z,1000.21
2024-02-04T04:54:31.431Z,1000.18
2024-02-04T04:55:31.384Z,1000.19
2024-02-04T04:56:31.410Z,1000.19
2024-02-04T04:57:31.469Z,1000.36
2024-02-04T04:58:31.444Z,1000.34
2024-02-04T04:59:31.427Z,1000.24
2024-02-04T05:00:31.481Z,1000.32
2024-02-04T05:01:31.581Z,1000.34
2024-02-04T05:02:31.477Z,1000.34
2024-02-04T05:03:31.639Z,1000.30
2024-02-04T05:04:31.517Z,1000.21
2024-02-04T05:05:31.483Z,1000.24
2024-02-04T05:06:31.867Z,1000.16
2024-02-04T05:07:31.583Z,1000.12
2024-02-04T05:08:31.549Z,1000.20
2024-02-04T05:09:31.611Z,1000.19
2024-02-04T05:10:31.571Z,1000.18
2024-02-04T05:11:31.581Z,1000.25
2024-02-04T05:12:31.581Z,1000.21
2024-02-04T05:13:31.630Z,1000.22
2024-02-04T05:14:31.623Z,1000.19
2024-02-04T05:15:31.648Z,1000.22
2024-02-04T05:16:31.615Z,1000.12
2024-02-04T05:17:31.707Z,1000.19
2024-02-04T05:18:31.792Z,1000.23
2024-02-04T05:19:31.764Z,1000.25
2024-02-04T05:20:31.677Z,1000.26
2024-02-04T05:21:31.714Z,1000.27
2024-02-04T05:22:31.697Z,1000.32
2024-02-04T05:23:31.764Z,1000.30
2024-02-04T05:24:31.790Z,1000.31
2024-02-04T05:25:31.745Z,1000.32
2024-02-04T05:26:31.757Z,1000.33
2024-02-04T05:27:31.789Z,1000.32
2024-02-04T05:28:31.834Z,1000.34
2024-02-04T05:29:31.832Z,1000.41
2024-02-04T05:30:31.857Z,1000.23
2024-02-04T05:31:31.869Z,1000.25
2024-02-04T05:32:31.876Z,1000.33
2024-02-04T05:33:31.932Z,1000.34
2024-02-04T05:34:32.037Z,1000.28
2024-02-04T05:35:31.881Z,1000.42
2024-02-04T05:36:31.928Z,1000.36
2024-02-04T05:37:31.884Z,1000.34
2024-02-04T05:38:31.933Z,1000.34
2024-02-04T05:39:31.923Z,1000.29
2024-02-04T05:40:31.929Z,1000.34
2024-02-04T05:41:31.951Z,1000.33
2024-02-04T05:42:31.987Z,1000.39
2024-02-04T05:43:31.983Z,1000.31
2024-02-04T05:44:31.997Z,1000.24
2024-02-04T05:45:32.099Z,1000.30
2024-02-04T05:46:32.074Z,1000.27
2024-02-04T05:47:32.075Z,1000.29
2024-02-04T05:48:32.313Z,1000.39
2024-02-04T05:49:32.171Z,1000.33
2024-02-04T05:50:32.217Z,1000.31
2024-02-04T05:51:32.109Z,1000.30
2024-02-04T05:52:32.074Z,1000.22
2024-02-04T05:53:32.099Z,1000.20
2024-02-04T05:54:32.143Z,1000.27
2024-02-04T05:55:32.088Z,1000.22
2024-02-04T05:56:32.136Z,1000.28
2024-02-04T05:57:32.175Z,1000.21
2024-02-04T05:58:32.159Z,1000.18
2024-02-04T05:59:32.193Z,1000.20
2024-02-04T06:00:32.175Z,1000.20
2024-02-04T06:01:32.216Z,1000.27
2024-02-04T06:02:32.264Z,1000.25
2024-02-04T06:03:32.271Z,1000.15
2024-02-04T06:04:32.332Z,1000.09
2024-02-04T06:05:32.252Z,1000.10
2024-02-04T06:06:32.426Z,1000.16
2024-02-04T06:07:32.236Z,1000.17
2024-02-04T06:08:32.288Z,1000.21
2024-02-04T06:09:32.438Z,1000.18
2024-02-04T06:10:32.297Z,1000.19
2024-02-04T06:11:32.331Z,1000.21
2024-02-04T06:12:32.335Z,1000.18
2024-02-04T06:13:32.328Z,1000.12
2024-02-04T06:14:32.380Z,1000.07
2024-02-04T06:15:32.389Z,1000.21
2024-02-04T06:16:32.350Z,1000.23
2024-02-04T06:17:32.374Z,1000.27
2024-02-04T06:18:32.482Z,1000.22
2024-02-04T06:19:32.484Z,1000.15
2024-02-04T06:20:32.387Z,1000.18
2024-02-04T06:21:32.471Z,1000.23
2024-02-04T06:22:32.424Z,1000.21
2024-02-04T06:23:32.448Z,1000.19
2024-02-04T06:24:32.611Z,1000.16
2024-02-04T06:25:32.526Z,1000.19
2024-02-04T06:26:32.466Z,1000.07
2024-02-04T06:27:32.555Z,1000.09
2024-02-04T06:28:32.555Z,1000.11
2024-02-04T06:29:32.778Z,1000.19
2024-02-04T06:30:32.583Z,1000.24
2024-02-04T06:31:32.525Z,1000.15
2024-02-04T06:32:32.568Z,1000.13
2024-02-04T06:33:32.728Z,1000.14
2024-02-04T06:34:33.128Z,1000.00
2024-02-04T06:35:32.621Z,1000.16
2024-02-04T06:36:32.985Z,1000.10
2024-02-04T06:37:32.726Z,1000.16
2024-02-04T06:38:32.669Z,1000.13
2024-02-04T06:39:32.684Z,1000.10
2024-02-04T06:40:32.714Z,1000.08
2024-02-04T06:41:32.686Z,1000.21
2024-02-04T06:42:32.737Z,1000.24
2024-02-04T06:43:36.621Z,1000.18
2024-02-04T06:44:32.673Z,1000.15
2024-02-04T06:45:32.749Z,1000.18
2024-02-04T06:46:32.723Z,1000.18
2024-02-04T06:47:32.719Z,1000.12
2024-02-04T06:48:32.828Z,1000.09
2024-02-04T06:49:32.874Z,1000.05
2024-02-04T06:50:32.832Z,1000.02
2024-02-04T06:51:32.753Z,999.96
2024-02-04T06:52:32.680Z,1000.08
2024-02-04T06:53:32.712Z,999.99
2024-02-04T06:54:32.728Z,999.97
2024-02-04T06:55:32.694Z,999.99
2024-02-04T06:56:32.730Z,999.97
2024-02-04T06:57:32.728Z,1000.00
2024-02-04T06:58:32.730Z,999.99
2024-02-04T06:59:32.683Z,1000.13
2024-02-04T07:00:32.728Z,1000.02
2024-02-04T07:01:32.826Z,1000.16
2024-02-04T07:02:32.731Z,1000.19
2024-02-04T07:03:32.823Z,1000.24
2024-02-04T07:04:32.768Z,1000.26
2024-02-04T07:05:32.742Z,1000.24
2024-02-04T07:06:32.803Z,1000.20
2024-02-04T07:07:32.731Z,1000.29
2024-02-04T07:08:32.751Z,1000.25
2024-02-04T07:09:32.768Z,1000.24
2024-02-04T07:10:32.742Z,1000.23
2024-02-04T07:12:10.271Z,1000.26
2024-02-04T07:13:10.266Z,1000.29
2024-02-04T07:14:10.195Z,1000.23
2024-02-04T07:15:10.197Z,1000.23
2024-02-04T07:16:10.273Z,1000.19
2024-02-04T07:17:10.232Z,1000.14
2024-02-04T07:18:10.244Z,1000.11
2024-02-04T07:19:10.282Z,1000.19
2024-02-04T07:20:10.252Z,1000.08
2024-02-04T07:21:10.230Z,1000.05
2024-02-04T07:22:10.228Z,1000.14
2024-02-04T07:23:10.239Z,1000.12
2024-02-04T07:24:10.215Z,1000.04
2024-02-04T07:25:10.439Z,1000.12
2024-02-04T07:26:10.364Z,1000.16
2024-02-04T07:27:10.362Z,1000.18
2024-02-04T07:28:10.449Z,1000.06
2024-02-04T07:29:10.416Z,1000.17
2024-02-04T07:30:10.395Z,1000.16
2024-02-04T07:31:10.486Z,1000.25
2024-02-04T07:32:10.437Z,1000.04
2024-02-04T07:33:10.565Z,1000.15
2024-02-04T07:34:10.534Z,1000.20
2024-02-04T07:35:10.689Z,1000.25
2024-02-04T07:36:10.487Z,1000.22
2024-02-04T07:37:10.633Z,1000.18
2024-02-04T07:38:10.541Z,1000.20
2024-02-04T07:39:10.538Z,1000.27
2024-02-04T07:40:10.559Z,1000.19
2024-02-04T07:41:10.568Z,1000.25
2024-02-04T07:42:10.560Z,1000.32
2024-02-04T07:43:10.633Z,1000.22
2024-02-04T07:44:10.600Z,1000.18
2024-02-04T07:45:10.752Z,1000.17
2024-02-04T07:46:10.649Z,1000.18
2024-02-04T07:47:10.614Z,1000.15
2024-02-04T07:48:10.752Z,1000.25
2024-02-04T07:49:10.720Z,1000.17
2024-02-04T07:50:10.968Z,1000.23
2024-02-04T07:51:10.670Z,1000.20
2024-02-04T07:52:10.791Z,1000.22
2024-02-04T07:53:10.666Z,1000.15
2024-02-04T07:54:10.697Z,1000.19
2024-02-04T07:55:10.815Z,1000.21
2024-02-04T07:56:10.701Z,1000.17
2024-02-04T07:57:10.753Z,1000.13
2024-02-04T07:58:10.784Z,1000.20
2024-02-04T07:59:10.758Z,1000.15
2024-02-04T08:00:10.915Z,1000.15
2024-02-04T08:01:10.900Z,1000.05
2024-02-04T08:02:10.838Z,1000.06
2024-02-04T08:03:10.822Z,1000.04
2024-02-04T08:04:10.878Z,1000.04
2024-02-04T08:05:10.874Z,1000.11
2024-02-04T08:06:10.843Z,1000.03
2024-02-04T08:07:10.904Z,1000.04
2024-02-04T08:08:10.980Z,1000.04
2024-02-04T08:09:10.895Z,999.95
2024-02-04T08:10:11.087Z,999.88
2024-02-04T08:11:11.003Z,999.90
2024-02-04T08:12:10.914Z,999.91
2024-02-04T08:13:11.051Z,999.95
2024-02-04T08:14:10.955Z,999.96
2024-02-04T08:15:10.982Z,999.93
2024-02-04T08:16:11.074Z,999.98
2024-02-04T08:17:10.967Z,999.95
2024-02-04T08:18:11.000Z,999.95
2024-02-04T08:19:11.102Z,1000.02
2024-02-04T08:20:11.103Z,1000.08
2024-02-04T08:21:11.055Z,1000.03
2024-02-04T08:22:11.056Z,1000.11
2024-02-04T08:23:11.033Z,1000.03
2024-02-04T08:24:11.080Z,1000.04
2024-02-04T08:25:11.211Z,1000.07
2024-02-04T08:26:11.124Z,1000.11
2024-02-04T08:27:11.124Z,1000.07
2024-02-04T08:28:11.163Z,999.92
2024-02-04T08:29:11.146Z,1000.03
2024-02-04T08:30:11.135Z,999.98
2024-02-04T08:31:11.319Z,1000.01
2024-02-04T08:32:11.158Z,1000.12
2024-02-04T08:33:11.215Z,1000.08
2024-02-04T08:34:11.285Z,1000.09
2024-02-04T08:35:11.404Z,1000.11
2024-02-04T08:36:11.212Z,1000.07
2024-02-04T08:37:11.310Z,1000.01
2024-02-04T08:38:11.239Z,1000.04
2024-02-04T08:39:11.261Z,1000.01
2024-02-04T08:40:11.354Z,1000.06
2024-02-04T08:41:11.238Z,999.96
2024-02-04T08:42:11.293Z,999.98
2024-02-04T08:43:11.355Z,999.91
2024-02-04T08:44:16.068Z,1000.03
2024-02-04T08:45:11.312Z,999.94
2024-02-04T08:46:14.072Z,999.89
2024-02-04T08:47:11.836Z,999.92
2024-02-04T08:48:11.365Z,999.94
2024-02-04T08:49:11.331Z,999.86
2024-02-04T08:50:11.321Z,999.86
2024-02-04T08:51:11.351Z,999.86
2024-02-04T08:52:11.430Z,999.88
2024-02-04T08:53:11.442Z,999.94
2024-02-04T08:54:11.304Z,1000.03
2024-02-04T08:55:11.404Z,999.99
2024-02-04T08:56:11.342Z,1000.06
2024-02-04T08:57:11.324Z,1000.16
2024-02-04T08:58:11.457Z,1000.03
2024-02-04T08:59:11.317Z,1000.06
2024-02-04T09:00:11.320Z,1000.14
2024-02-04T09:01:11.403Z,1000.05
2024-02-04T09:02:11.776Z,1000.02
2024-02-04T09:03:11.405Z,1000.08
2024-02-04T09:04:11.427Z,1000.12
2024-02-04T09:05:11.339Z,1000.07
2024-02-04T09:06:11.338Z,1000.11
2024-02-04T09:07:11.516Z,1000.04
2024-02-04T09:08:11.306Z,999.97
2024-02-04T09:09:11.363Z,999.96
2024-02-04T09:10:11.390Z,999.99
2024-02-04T09:11:11.310Z,999.99
2024-02-04T09:12:11.366Z,999.95
2024-02-04T09:13:11.425Z,999.91
2024-02-04T09:14:11.435Z,999.97
2024-02-04T09:15:11.345Z,999.89
2024-02-04T09:16:11.398Z,1000.03
2024-02-04T09:17:11.453Z,1000.05
2024-02-04T09:18:11.530Z,1000.04
2024-02-04T09:19:11.507Z,999.97
2024-02-04T09:20:11.460Z,999.96
2024-02-04T09:21:11.441Z,1000.05
2024-02-04T09:22:11.441Z,999.99
2024-02-04T09:23:11.424Z,1000.02
2024-02-04T09:24:11.378Z,1000.00
2024-02-04T09:25:11.400Z,1000.02
2024-02-04T09:26:11.399Z,999.88
2024-02-04T09:27:11.535Z,999.93
2024-02-04T09:28:11.492Z,1000.00
2024-02-04T09:29:11.453Z,999.93
2024-02-04T09:30:11.390Z,999.95
2024-02-04T09:31:11.606Z,999.89
2024-02-04T09:32:11.460Z,999.86
2024-02-04T09:33:11.562Z,999.98
2024-02-04T09:34:11.558Z,999.94
2024-02-04T09:35:11.707Z,999.96
2024-02-04T09:36:11.632Z,999.94
2024-02-04T09:37:11.909Z,999.87
2024-02-04T09:38:14.372Z,999.88
2024-02-04T09:39:11.372Z,999.85
2024-02-04T09:40:11.664Z,999.84
2024-02-04T09:41:11.375Z,999.78
2024-02-04T09:42:11.348Z,999.86
2024-02-04T09:43:11.473Z,999.82
2024-02-04T09:44:11.374Z,999.87
2024-02-04T09:45:11.409Z,999.87
2024-02-04T09:46:11.425Z,999.85
2024-02-04T09:47:11.400Z,999.81
2024-02-04T09:48:11.495Z,999.89
2024-02-04T09:49:11.554Z,999.86
2024-02-04T09:50:11.512Z,999.98
2024-02-04T09:51:11.418Z,1000.04
2024-02-04T09:52:11.474Z,999.96
2024-02-04T09:53:11.383Z,1000.03
2024-02-04T09:54:11.450Z,1000.00
2024-02-04T09:55:11.458Z,1000.02
2024-02-04T09:56:11.483Z,1000.04
2024-02-04T09:57:11.487Z,999.92
2024-02-04T09:58:11.413Z,999.98
2024-02-04T09:59:11.414Z,999.98
2024-02-04T10:00:11.446Z,1000.01
2024-02-04T10:01:11.590Z,999.94
2024-02-04T10:02:11.530Z,1000.01
2024-02-04T10:03:11.602Z,1000.00
2024-02-04T10:04:11.621Z,1000.02
2024-02-04T10:05:11.659Z,999.90
2024-02-04T10:06:11.536Z,999.96
2024-02-04T10:07:11.554Z,1000.09
2024-02-04T10:08:11.487Z,1000.00
2024-02-04T10:09:11.448Z,1000.07
2024-02-04T10:10:11.544Z,1000.15
2024-02-04T10:11:11.530Z,1000.09
2024-02-04T10:12:11.489Z,1000.14
2024-02-04T10:13:11.437Z,1000.15
2024-02-04T10:14:11.395Z,1000.18
2024-02-04T10:15:11.410Z,1000.22
2024-02-04T10:16:11.565Z,1000.20
2024-02-04T10:17:11.396Z,1000.24
2024-02-04T10:18:11.492Z,1000.21
2024-02-04T10:19:11.426Z,1000.06
2024-02-04T10:20:11.481Z,1000.11
2024-02-04T10:21:11.482Z,1000.25
2024-02-04T10:22:11.497Z,1000.12
2024-02-04T10:23:11.411Z,1000.06
2024-02-04T10:24:11.461Z,1000.18
2024-02-04T10:25:11.481Z,1000.07
2024-02-04T10:26:11.415Z,1000.12
2024-02-04T10:27:16.043Z,1000.16
2024-02-04T10:28:11.456Z,1000.14
2024-02-04T10:29:11.417Z,1000.06
2024-02-04T10:30:11.407Z,1000.06
2024-02-04T10:31:11.749Z,1000.14
2024-02-04T10:32:11.431Z,1000.16
2024-02-04T10:33:11.533Z,1000.11
2024-02-04T10:34:11.553Z,1000.12
2024-02-04T10:35:11.437Z,1000.18
2024-02-04T10:36:11.599Z,1000.20
2024-02-04T10:37:11.485Z,1000.16
2024-02-04T10:38:11.420Z,1000.13
2024-02-04T10:39:11.401Z,1000.00
2024-02-04T10:40:11.467Z,999.93
2024-02-04T10:41:11.426Z,999.98
2024-02-04T10:42:11.474Z,1000.01
2024-02-04T10:43:11.531Z,1000.06
2024-02-04T10:44:11.415Z,1000.02
2024-02-04T10:45:11.450Z,999.98
2024-02-04T10:46:11.688Z,1000.01
2024-02-04T10:47:11.433Z,999.91
2024-02-04T10:48:11.478Z,999.87
2024-02-04T10:49:11.489Z,999.94
2024-02-04T10:50:11.483Z,999.87
2024-02-04T10:51:11.467Z,999.99
2024-02-04T10:52:11.548Z,999.94
2024-02-04T10:53:11.440Z,1000.02
2024-02-04T10:54:11.435Z,999.97
2024-02-04T10:55:11.642Z,999.92
2024-02-04T10:56:11.544Z,999.90
2024-02-04T10:57:11.477Z,999.90
2024-02-04T10:58:11.506Z,999.83
2024-02-04T10:59:11.456Z,999.86
2024-02-04T11:00:11.438Z,999.75
2024-02-04T11:01:11.564Z,999.74
2024-02-04T11:02:11.433Z,999.72
2024-02-04T11:03:11.431Z,999.69
2024-02-04T11:04:11.527Z,999.75
2024-02-04T11:05:11.537Z,999.74
2024-02-04T11:06:11.562Z,999.76
2024-02-04T11:07:11.457Z,999.79
2024-02-04T11:08:11.467Z,999.71
2024-02-04T11:09:11.441Z,999.75
2024-02-04T11:10:11.511Z,999.77
2024-02-04T11:11:11.470Z,999.75
2024-02-04T11:12:11.485Z,999.77
2024-02-04T11:13:11.633Z,999.72
2024-02-04T11:14:11.458Z,999.75
2024-02-04T11:15:11.478Z,999.85
2024-02-04T11:16:11.526Z,999.80
2024-02-04T11:17:11.474Z,999.74
2024-02-04T11:18:11.658Z,999.75
2024-02-04T11:19:11.505Z,999.74
2024-02-04T11:20:11.491Z,999.69
2024-02-04T11:21:11.453Z,999.66
2024-02-04T11:22:11.500Z,999.68
2024-02-04T11:23:11.473Z,999.62
2024-02-04T11:24:11.455Z,999.66
2024-02-04T11:25:11.584Z,999.66
2024-02-04T11:26:11.466Z,999.72
2024-02-04T11:27:11.475Z,999.66
2024-02-04T11:28:11.533Z,999.63
2024-02-04T11:29:11.490Z,999.82
2024-02-04T11:30:11.479Z,999.71
2024-02-04T11:31:11.546Z,999.79
2024-02-04T11:32:11.506Z,999.78
2024-02-04T11:33:11.635Z,999.77
2024-02-04T11:34:11.581Z,999.76
2024-02-04T11:35:11.617Z,999.73
2024-02-04T11:36:11.600Z,999.80
2024-02-04T11:37:11.539Z,999.72
2024-02-04T11:38:11.598Z,999.71
2024-02-04T11:39:11.531Z,999.81
2024-02-04T11:40:11.595Z,999.79
2024-02-04T11:41:11.523Z,999.69
2024-02-04T11:42:11.512Z,999.81
2024-02-04T11:43:11.655Z,999.73
2024-02-04T11:44:11.602Z,999.66
2024-02-04T11:45:11.584Z,999.78
2024-02-04T11:46:11.572Z,999.75
2024-02-04T11:47:11.514Z,999.74
2024-02-04T11:48:11.703Z,999.56
2024-02-04T11:49:11.708Z,999.48
2024-02-04T11:50:12.350Z,999.43
2024-02-04T11:51:11.656Z,999.40
2024-02-04T11:52:11.524Z,999.40
2024-02-04T11:53:11.511Z,999.38
2024-02-04T11:54:11.513Z,999.32
2024-02-04T11:55:11.545Z,999.35
2024-02-04T11:56:11.616Z,999.32
2024-02-04T11:57:11.501Z,999.35
2024-02-04T11:58:11.535Z,999.24
2024-02-04T11:59:11.536Z,999.41
2024-02-04T12:00:11.788Z,999.41
2024-02-04T12:01:13.054Z,999.39
2024-02-04T12:02:11.538Z,999.26
2024-02-04T12:03:11.503Z,999.35
2024-02-04T12:04:11.550Z,999.33
2024-02-04T12:05:11.523Z,999.32
2024-02-04T12:06:11.524Z,999.38
2024-02-04T12:07:11.632Z,999.35
2024-02-04T12:08:11.577Z,999.35
2024-02-04T12:09:11.557Z,999.35
2024-02-04T12:10:11.614Z,999.37
2024-02-04T12:11:11.542Z,999.29